sensor_id;sensor_type;location;lat;lon;timestamp;pressure;altitude;pressure_sealevel;temperature;humidity
8477;BME280;4275;42.854;23.222;2023-10-13T00:02:13;39715.88;;;-141.02;100.00
8477;BME280;4275;42.854;23.222;2023-10-13T00:04:43;39706.28;;;-141.02;100.00
8477;BME280;4275;42.854;23.222;2023-10-13T00:07:13;39685.19;;;-141.02;100.00
8477;BME280;4275;42.854;23.222;2023-10-13T00:09:41;39650.66;;;-141.02;100.00
8477;BME280;4275;42.854;23.222;2023-10-13T00:12:08;39658.34;;;-141.02;100.00
8477;BME280;4275;42.854;23.222;2023-10-13T00:14:46;39660.25;;;-141.02;100.00
8477;BME280;4275;42.854;23.222;2023-10-13T00:17:16;39667.94;;;-141.02;100.00
8477;BME280;4275;42.854;23.222;2023-10-13T00:19:46;39723.53;;;-141.02;100.00
8477;BME280;4275;42.854;23.222;2023-10-13T00:22:17;39738.88;;;-141.02;100.00
8477;BME280;4275;42.854;23.222;2023-10-13T00:24:45;39723.53;;;-141.02;100.00
8477;BME280;4275;42.854;23.222;2023-10-13T00:27:15;39721.63;;;-141.02;100.00
8477;BME280;4275;42.854;23.222;2023-10-13T00:29:57;39689.03;;;-141.02;100.00
8477;BME280;4275;42.854;23.222;2023-10-13T00:32:48;39675.59;;;-141.02;100.00
8477;BME280;4275;42.854;23.222;2023-10-13T00:35:20;39685.19;;;-141.02;100.00
8477;BME280;4275;42.854;23.222;2023-10-13T00:37:54;39456.97;;;-141.02;100.00
8477;BME280;4275;42.854;23.222;2023-10-13T00:40:23;39593.13;;;-141.02;100.00
8477;BME280;4275;42.854;23.222;2023-10-13T00:43:10;39627.66;;;-141.02;100.00
8477;BME280;4275;42.854;23.222;2023-10-13T00:45:57;39619.97;;;-141.02;100.00
8477;BME280;4275;42.854;23.222;2023-10-13T00:48:34;39577.78;;;-141.02;100.00
8477;BME280;4275;42.854;23.222;2023-10-13T00:51:08;39600.78;;;-141.02;100.00
8477;BME280;4275;42.854;23.222;2023-10-13T00:53:46;39568.19;;;-141.02;100.00
8477;BME280;4275;42.854;23.222;2023-10-13T00:56:15;39562.44;;;-141.02;100.00
8477;BME280;4275;42.854;23.222;2023-10-13T00:58:52;39579.69;;;-141.02;100.00
8477;BME280;4275;42.854;23.222;2023-10-13T01:01:20;39531.75;;;-141.02;100.00
8477;BME280;4275;42.854;23.222;2023-10-13T01:03:49;39512.56;;;-141.02;100.00
8477;BME280;4275;42.854;23.222;2023-10-13T01:06:17;39474.22;;;-141.02;100.00
8477;BME280;4275;42.854;23.222;2023-10-13T01:08:46;39458.88;;;-141.02;100.00
8477;BME280;4275;42.854;23.222;2023-10-13T01:11:18;39412.84;;;-141.02;100.00
8477;BME280;4275;42.854;23.222;2023-10-13T01:13:49;39366.81;;;-141.02;100.00
8477;BME280;4275;42.854;23.222;2023-10-13T01:16:17;39341.88;;;-141.02;100.00
8477;BME280;4275;42.854;23.222;2023-10-13T01:18:48;39313.13;;;-141.02;100.00
8477;BME280;4275;42.854;23.222;2023-10-13T01:21:16;39316.97;;;-141.02;100.00
8477;BME280;4275;42.854;23.222;2023-10-13T01:23:47;39328.47;;;-141.02;100.00
8477;BME280;4275;42.854;23.222;2023-10-13T01:26:18;39276.69;;;-141.02;100.00
8477;BME280;4275;42.854;23.222;2023-10-13T01:28:58;39263.25;;;-141.02;100.00
8477;BME280;4275;42.854;23.222;2023-10-13T01:31:24;39263.25;;;-141.02;100.00
8477;BME280;4275;42.854;23.222;2023-10-13T01:33:53;39309.28;;;-141.02;100.00
8477;BME280;4275;42.854;23.222;2023-10-13T01:36:22;39263.25;;;-141.02;100.00
8477;BME280;4275;42.854;23.222;2023-10-13T01:38:51;39309.28;;;-141.02;100.00
8477;BME280;4275;42.854;23.222;2023-10-13T01:41:18;39290.13;;;-141.02;100.00
8477;BME280;4275;42.854;23.222;2023-10-13T01:43:46;39270.94;;;-141.02;100.00
8477;BME280;4275;42.854;23.222;2023-10-13T01:46:14;39313.13;;;-141.02;100.00
8477;BME280;4275;42.854;23.222;2023-10-13T01:48:50;39251.75;;;-141.02;100.00
8477;BME280;4275;42.854;23.222;2023-10-13T01:51:19;39263.25;;;-141.02;100.00
8477;BME280;4275;42.854;23.222;2023-10-13T01:53:48;39221.06;;;-141.02;100.00
8477;BME280;4275;42.854;23.222;2023-10-13T01:56:23;39198.06;;;-141.02;100.00
8477;BME280;4275;42.854;23.222;2023-10-13T01:58:50;39159.72;;;-141.02;100.00
8477;BME280;4275;42.854;23.222;2023-10-13T02:01:17;39144.38;;;-141.02;100.00
8477;BME280;4275;42.854;23.222;2023-10-13T02:03:54;39065.75;;;-141.02;100.00
8477;BME280;4275;42.854;23.222;2023-10-13T02:06:27;39044.66;;;-141.02;100.00
8477;BME280;4275;42.854;23.222;2023-10-13T02:08:59;39002.47;;;-141.02;100.00
8477;BME280;4275;42.854;23.222;2023-10-13T02:11:38;38925.75;;;-141.02;100.00
8477;BME280;4275;42.854;23.222;2023-10-13T02:14:14;38891.25;;;-141.02;100.00
8477;BME280;4275;42.854;23.222;2023-10-13T02:16:42;38849.06;;;-141.02;100.00
8477;BME280;4275;42.854;23.222;2023-10-13T02:19:12;38791.53;;;-141.02;100.00
8477;BME280;4275;42.854;23.222;2023-10-13T02:21:41;38753.19;;;-141.02;100.00
8477;BME280;4275;42.854;23.222;2023-10-13T02:24:11;38689.91;;;-141.02;100.00
8477;BME280;4275;42.854;23.222;2023-10-13T02:26:40;38689.91;;;-141.02;100.00
8477;BME280;4275;42.854;23.222;2023-10-13T02:29:07;38680.34;;;-141.02;100.00
8477;BME280;4275;42.854;23.222;2023-10-13T02:31:35;38626.66;;;-141.02;100.00
8477;BME280;4275;42.854;23.222;2023-10-13T02:34:03;38618.97;;;-141.02;100.00
8477;BME280;4275;42.854;23.222;2023-10-13T02:36:33;38592.13;;;-141.02;100.00
8477;BME280;4275;42.854;23.222;2023-10-13T02:39:12;38551.88;;;-141.02;100.00
8477;BME280;4275;42.854;23.222;2023-10-13T02:41:40;38515.44;;;-141.02;100.00
8477;BME280;4275;42.854;23.222;2023-10-13T02:44:13;38538.44;;;-141.02;100.00
8477;BME280;4275;42.854;23.222;2023-10-13T02:46:52;38503.94;;;-141.02;100.00
8477;BME280;4275;42.854;23.222;2023-10-13T02:49:21;38475.19;;;-141.02;100.00
8477;BME280;4275;42.854;23.222;2023-10-13T02:51:47;38461.75;;;-141.02;100.00
8477;BME280;4275;42.854;23.222;2023-10-13T02:54:14;38433.00;;;-141.02;100.00
8477;BME280;4275;42.854;23.222;2023-10-13T02:56:45;38408.06;;;-141.02;100.00
8477;BME280;4275;42.854;23.222;2023-10-13T02:59:16;38385.06;;;-141.02;100.00
8477;BME280;4275;42.854;23.222;2023-10-13T03:01:45;38350.56;;;-141.02;100.00
8477;BME280;4275;42.854;23.222;2023-10-13T03:04:13;38317.97;;;-141.02;100.00
8477;BME280;4275;42.854;23.222;2023-10-13T03:06:39;38327.56;;;-141.02;100.00
8477;BME280;4275;42.854;23.222;2023-10-13T03:09:08;38327.56;;;-141.02;100.00
8477;BME280;4275;42.854;23.222;2023-10-13T03:11:40;38316.06;;;-141.02;100.00
8477;BME280;4275;42.854;23.222;2023-10-13T03:14:15;38314.13;;;-141.02;100.00
8477;BME280;4275;42.854;23.222;2023-10-13T03:16:51;38293.03;;;-141.02;100.00
8477;BME280;4275;42.854;23.222;2023-10-13T03:19:18;38262.38;;;-141.02;100.00
8477;BME280;4275;42.854;23.222;2023-10-13T03:21:44;38268.13;;;-141.02;100.00
8477;BME280;4275;42.854;23.222;2023-10-13T03:24:21;38235.53;;;-141.02;100.00
8477;BME280;4275;42.854;23.222;2023-10-13T03:26:59;38193.34;;;-141.02;100.00
8477;BME280;4275;42.854;23.222;2023-10-13T03:29:36;38204.84;;;-141.02;100.00
8477;BME280;4275;42.854;23.222;2023-10-13T03:32:02;38195.28;;;-141.02;100.00
8477;BME280;4275;42.854;23.222;2023-10-13T03:34:37;38155.00;;;-141.02;100.00
8477;BME280;4275;42.854;23.222;2023-10-13T03:37:07;38124.34;;;-141.02;100.00
8477;BME280;4275;42.854;23.222;2023-10-13T03:39:43;38132.00;;;-141.02;100.00
8477;BME280;4275;42.854;23.222;2023-10-13T03:42:10;38097.50;;;-141.02;100.00
8477;BME280;4275;42.854;23.222;2023-10-13T03:44:45;38078.31;;;-141.02;100.00
8477;BME280;4275;42.854;23.222;2023-10-13T03:47:14;38047.66;;;-141.02;100.00
8477;BME280;4275;42.854;23.222;2023-10-13T03:49:53;38016.97;;;-141.02;100.00
8477;BME280;4275;42.854;23.222;2023-10-13T03:52:40;38020.81;;;-141.02;100.00
8477;BME280;4275;42.854;23.222;2023-10-13T03:55:08;38013.16;;;-141.02;100.00
8477;BME280;4275;42.854;23.222;2023-10-13T03:57:42;37970.97;;;-141.02;100.00
8477;BME280;4275;42.854;23.222;2023-10-13T04:00:14;37947.97;;;-141.02;100.00
8477;BME280;4275;42.854;23.222;2023-10-13T04:02:47;37863.63;;;-141.02;100.00
8477;BME280;4275;42.854;23.222;2023-10-13T04:05:20;37869.38;;;-141.02;100.00
8477;BME280;4275;42.854;23.222;2023-10-13T04:08:02;37909.63;;;-141.02;100.00
8477;BME280;4275;42.854;23.222;2023-10-13T04:10:47;37905.81;;;-141.02;100.00
8477;BME280;4275;42.854;23.222;2023-10-13T04:13:31;37898.13;;;-141.02;100.00
8477;BME280;4275;42.854;23.222;2023-10-13T04:16:32;37901.97;;;-141.02;100.00
8477;BME280;4275;42.854;23.222;2023-10-13T04:19:03;37940.31;;;-141.02;100.00
8477;BME280;4275;42.854;23.222;2023-10-13T04:21:35;37970.97;;;-141.02;100.00
8477;BME280;4275;42.854;23.222;2023-10-13T04:24:21;38005.47;;;-141.02;100.00
8477;BME280;4275;42.854;23.222;2023-10-13T04:27:03;38063.00;;;-141.02;100.00
8477;BME280;4275;42.854;23.222;2023-10-13T04:29:56;38124.34;;;-141.02;100.00
8477;BME280;4275;42.854;23.222;2023-10-13T04:32:37;38224.03;;;-141.02;100.00
8477;BME280;4275;42.854;23.222;2023-10-13T04:35:13;38381.22;;;-141.02;100.00
8477;BME280;4275;42.854;23.222;2023-10-13T04:37:44;38503.94;;;-141.02;100.00
8477;BME280;4275;42.854;23.222;2023-10-13T04:40:20;38636.22;;;-141.02;100.00
8477;BME280;4275;42.854;23.222;2023-10-13T04:42:50;38745.53;;;-141.02;100.00
8477;BME280;4275;42.854;23.222;2023-10-13T04:45:20;38852.91;;;-141.02;100.00
8477;BME280;4275;42.854;23.222;2023-10-13T04:48:06;38906.59;;;-141.02;100.00
8477;BME280;4275;42.854;23.222;2023-10-13T04:50:59;38929.59;;;-141.02;100.00
8477;BME280;4275;42.854;23.222;2023-10-13T04:53:40;38990.97;;;-141.02;100.00
8477;BME280;4275;42.854;23.222;2023-10-13T04:56:21;39013.97;;;-141.02;100.00
8477;BME280;4275;42.854;23.222;2023-10-13T04:59:05;39040.81;;;-141.02;100.00
8477;BME280;4275;42.854;23.222;2023-10-13T05:01:43;39060.00;;;-141.02;100.00
8477;BME280;4275;42.854;23.222;2023-10-13T05:04:43;39094.50;;;-141.02;100.00
8477;BME280;4275;42.854;23.222;2023-10-13T05:07:24;39113.69;;;-141.02;100.00
8477;BME280;4275;42.854;23.222;2023-10-13T05:10:08;39159.72;;;-141.02;100.00
8477;BME280;4275;42.854;23.222;2023-10-13T05:12:52;39152.03;;;-141.02;100.00
8477;BME280;4275;42.854;23.222;2023-10-13T05:15:43;39267.09;;;-141.02;100.00
8477;BME280;4275;42.854;23.222;2023-10-13T05:18:27;39378.31;;;-141.02;100.00
8477;BME280;4275;42.854;23.222;2023-10-13T05:21:13;39374.50;;;-141.02;100.00
8477;BME280;4275;42.854;23.222;2023-10-13T05:23:57;39370.66;;;-141.02;100.00
8477;BME280;4275;42.854;23.222;2023-10-13T05:26:42;39397.50;;;-141.02;100.00
8477;BME280;4275;42.854;23.222;2023-10-13T05:29:26;39458.88;;;-141.02;100.00
8477;BME280;4275;42.854;23.222;2023-10-13T05:32:11;39441.63;;;-141.02;100.00
8477;BME280;4275;42.854;23.222;2023-10-13T05:34:55;39466.53;;;-141.02;100.00
8477;BME280;4275;42.854;23.222;2023-10-13T05:37:41;39527.91;;;-141.02;100.00
8477;BME280;4275;42.854;23.222;2023-10-13T05:40:25;39585.44;;;-141.02;100.00
8477;BME280;4275;42.854;23.222;2023-10-13T05:43:09;39635.31;;;-141.02;100.00
8477;BME280;4275;42.854;23.222;2023-10-13T05:46:00;39715.88;;;-141.02;100.00
8477;BME280;4275;42.854;23.222;2023-10-13T05:48:45;39673.69;;;-141.02;100.00
8477;BME280;4275;42.854;23.222;2023-10-13T05:51:52;39631.47;;;-141.02;100.00
8477;BME280;4275;42.854;23.222;2023-10-13T05:54:25;39666.00;;;-141.02;100.00
8477;BME280;4275;42.854;23.222;2023-10-13T05:57:09;39754.22;;;-141.02;100.00
8477;BME280;4275;42.854;23.222;2023-10-13T05:59:54;39784.91;;;-141.02;100.00
8477;BME280;4275;42.854;23.222;2023-10-13T06:02:38;39742.72;;;-141.02;100.00
8477;BME280;4275;42.854;23.222;2023-10-13T06:05:22;39779.16;;;-141.02;100.00
8477;BME280;4275;42.854;23.222;2023-10-13T06:08:07;39761.91;;;-141.02;100.00
8477;BME280;4275;42.854;23.222;2023-10-13T06:11:01;39823.28;;;-141.02;100.00
8477;BME280;4275;42.854;23.222;2023-10-13T06:13:45;39838.63;;;-141.02;100.00
8477;BME280;4275;42.854;23.222;2023-10-13T06:16:42;39855.88;;;-141.02;100.00
8477;BME280;4275;42.854;23.222;2023-10-13T06:19:26;39836.72;;;-141.02;100.00
8477;BME280;4275;42.854;23.222;2023-10-13T06:22:10;39877.00;;;-141.02;100.00
8477;BME280;4275;42.854;23.222;2023-10-13T06:24:55;39919.19;;;-141.02;100.00
8477;BME280;4275;42.854;23.222;2023-10-13T06:27:40;39915.34;;;-141.02;100.00
8477;BME280;4275;42.854;23.222;2023-10-13T06:30:25;39942.19;;;-141.02;100.00
8477;BME280;4275;42.854;23.222;2023-10-13T06:32:51;39965.22;;;-141.02;100.00
8477;BME280;4275;42.854;23.222;2023-10-13T06:35:19;39934.53;;;-141.02;100.00
8477;BME280;4275;42.854;23.222;2023-10-13T06:37:49;39974.81;;;-141.02;100.00
8477;BME280;4275;42.854;23.222;2023-10-13T06:40:15;39999.75;;;-141.02;100.00
8477;BME280;4275;42.854;23.222;2023-10-13T06:43:01;40036.19;;;-141.02;100.00
8477;BME280;4275;42.854;23.222;2023-10-13T06:45:43;40022.75;;;-141.02;100.00
8477;BME280;4275;42.854;23.222;2023-10-13T06:48:16;40139.78;;;-141.02;100.00
8477;BME280;4275;42.854;23.222;2023-10-13T06:50:49;40066.88;;;-141.02;100.00
8477;BME280;4275;42.854;23.222;2023-10-13T06:53:18;40095.66;;;-141.02;100.00
8477;BME280;4275;42.854;23.222;2023-10-13T06:55:45;40091.81;;;-141.02;100.00
8477;BME280;4275;42.854;23.222;2023-10-13T06:58:16;40137.84;;;-141.02;100.00
8477;BME280;4275;42.854;23.222;2023-10-13T07:00:49;40141.69;;;-141.02;100.00
8477;BME280;4275;42.854;23.222;2023-10-13T07:03:21;40195.41;;;-141.02;100.00
8477;BME280;4275;42.854;23.222;2023-10-13T07:05:50;40199.22;;;-141.02;100.00
8477;BME280;4275;42.854;23.222;2023-10-13T07:08:19;40260.63;;;-141.02;100.00
8477;BME280;4275;42.854;23.222;2023-10-13T07:10:51;40285.56;;;-141.02;100.00
8477;BME280;4275;42.854;23.222;2023-10-13T07:13:28;40314.34;;;-141.02;100.00
8477;BME280;4275;42.854;23.222;2023-10-13T07:15:55;40383.38;;;-141.02;99.71
8477;BME280;4275;42.854;23.222;2023-10-13T07:18:27;40458.22;;;-141.02;98.71
8477;BME280;4275;42.854;23.222;2023-10-13T07:21:02;40513.84;;;-141.02;94.84
8477;BME280;4275;42.854;23.222;2023-10-13T07:23:36;40582.91;;;-141.02;92.96
8477;BME280;4275;42.854;23.222;2023-10-13T07:26:03;40655.81;;;-141.02;90.40
8477;BME280;4275;42.854;23.222;2023-10-13T07:28:32;40784.34;;;-141.02;85.93
8477;BME280;4275;42.854;23.222;2023-10-13T07:31:01;40855.34;;;-141.02;83.31
8477;BME280;4275;42.854;23.222;2023-10-13T07:33:41;40939.75;;;-141.02;81.18
8477;BME280;4275;42.854;23.222;2023-10-13T07:36:09;41008.84;;;-141.02;79.76
8477;BME280;4275;42.854;23.222;2023-10-13T07:38:43;40855.34;;;-141.02;78.66
8477;BME280;4275;42.854;23.222;2023-10-13T07:41:14;41137.38;;;-141.02;74.71
8477;BME280;4275;42.854;23.222;2023-10-13T07:43:44;41216.06;;;-141.02;73.12
8477;BME280;4275;42.854;23.222;2023-10-13T07:46:11;41265.94;;;-141.02;73.05
8477;BME280;4275;42.854;23.222;2023-10-13T07:48:39;41267.88;;;-141.02;73.81
8477;BME280;4275;42.854;23.222;2023-10-13T07:51:08;41331.19;;;-141.02;72.46
8477;BME280;4275;42.854;23.222;2023-10-13T07:53:37;41415.63;;;-141.02;70.04
8477;BME280;4275;42.854;23.222;2023-10-13T07:56:06;41419.47;;;-141.02;69.25
8477;BME280;4275;42.854;23.222;2023-10-13T07:58:34;41454.00;;;-141.02;65.84
8477;BME280;4275;42.854;23.222;2023-10-13T08:01:14;41505.81;;;-141.02;64.65
8477;BME280;4275;42.854;23.222;2023-10-13T08:03:44;41572.97;;;-141.02;64.91
8477;BME280;4275;42.854;23.222;2023-10-13T08:06:12;41576.81;;;-141.02;64.06
8477;BME280;4275;42.854;23.222;2023-10-13T08:08:47;41588.34;;;-141.02;65.29
8477;BME280;4275;42.854;23.222;2023-10-13T08:11:19;41563.38;;;-141.02;66.81
8477;BME280;4275;42.854;23.222;2023-10-13T08:13:54;41611.34;;;-141.02;66.29
8477;BME280;4275;42.854;23.222;2023-10-13T08:16:23;41682.38;;;-141.02;65.64
8477;BME280;4275;42.854;23.222;2023-10-13T08:18:56;41711.16;;;-141.02;66.16
8477;BME280;4275;42.854;23.222;2023-10-13T08:21:27;41713.06;;;-141.02;63.90
8477;BME280;4275;42.854;23.222;2023-10-13T08:23:57;41774.47;;;-141.02;65.02
8477;BME280;4275;42.854;23.222;2023-10-13T08:26:27;41784.06;;;-141.02;62.71
8477;BME280;4275;42.854;23.222;2023-10-13T08:29:17;41741.84;;;-141.02;61.19
8477;BME280;4275;42.854;23.222;2023-10-13T08:32:04;41738.03;;;-141.02;62.21
8477;BME280;4275;42.854;23.222;2023-10-13T08:34:47;41761.06;;;-141.02;62.58
8477;BME280;4275;42.854;23.222;2023-10-13T08:37:32;41822.47;;;-141.02;62.49
8477;BME280;4275;42.854;23.222;2023-10-13T08:40:04;41841.66;;;-141.02;63.10
8477;BME280;4275;42.854;23.222;2023-10-13T08:42:45;41814.78;;;-141.02;63.63
8477;BME280;4275;42.854;23.222;2023-10-13T08:45:36;41868.53;;;-141.02;61.91
8477;BME280;4275;42.854;23.222;2023-10-13T08:48:20;41916.50;;;-141.02;61.60
8477;BME280;4275;42.854;23.222;2023-10-13T08:50:52;41880.03;;;-141.02;61.72
8477;BME280;4275;42.854;23.222;2023-10-13T08:53:22;41918.41;;;-141.02;59.34
8477;BME280;4275;42.854;23.222;2023-10-13T08:55:57;41991.34;;;-141.02;59.81
8477;BME280;4275;42.854;23.222;2023-10-13T08:58:31;41966.41;;;-141.02;58.99
8477;BME280;4275;42.854;23.222;2023-10-13T09:01:12;42095.00;;;-141.02;58.53
8477;BME280;4275;42.854;23.222;2023-10-13T09:04:01;42102.66;;;-141.02;58.06
8477;BME280;4275;42.854;23.222;2023-10-13T09:06:42;42244.72;;;-141.02;60.12
8477;BME280;4275;42.854;23.222;2023-10-13T09:09:12;42083.47;;;-141.02;58.91
8477;BME280;4275;42.854;23.222;2023-10-13T09:11:53;42202.47;;;-141.02;58.42
8477;BME280;4275;42.854;23.222;2023-10-13T09:14:34;42256.22;;;-141.02;56.52
8477;BME280;4275;42.854;23.222;2023-10-13T09:17:04;42175.59;;;-141.02;57.37
8477;BME280;4275;42.854;23.222;2023-10-13T09:19:50;42217.84;;;-141.02;57.03
8477;BME280;4275;42.854;23.222;2023-10-13T09:22:25;42173.69;;;-141.02;56.38
8477;BME280;4275;42.854;23.222;2023-10-13T09:25:01;42275.41;;;-141.02;57.16
8477;BME280;4275;42.854;23.222;2023-10-13T09:27:29;42160.25;;;-141.02;57.09
8477;BME280;4275;42.854;23.222;2023-10-13T09:29:58;42263.91;;;-141.02;57.83
8477;BME280;4275;42.854;23.222;2023-10-13T09:32:35;42263.91;;;-141.02;56.69
8477;BME280;4275;42.854;23.222;2023-10-13T09:35:17;42275.41;;;-141.02;56.33
8477;BME280;4275;42.854;23.222;2023-10-13T09:37:45;42237.03;;;-141.02;56.23
8477;BME280;4275;42.854;23.222;2023-10-13T09:40:17;42302.28;;;-141.02;56.62
8477;BME280;4275;42.854;23.222;2023-10-13T09:42:55;42396.34;;;-141.02;56.62
8477;BME280;4275;42.854;23.222;2023-10-13T09:45:28;42402.09;;;-141.02;57.43
8477;BME280;4275;42.854;23.222;2023-10-13T09:48:03;42394.41;;;-141.02;56.21
8477;BME280;4275;42.854;23.222;2023-10-13T09:50:37;42381.00;;;-141.02;55.93
8477;BME280;4275;42.854;23.222;2023-10-13T09:53:08;42417.47;;;-141.02;54.85
8477;BME280;4275;42.854;23.222;2023-10-13T09:55:40;42394.41;;;-141.02;54.21
8477;BME280;4275;42.854;23.222;2023-10-13T09:58:11;42367.56;;;-141.02;53.65
8477;BME280;4275;42.854;23.222;2023-10-13T10:00:45;42448.16;;;-141.02;54.04
8477;BME280;4275;42.854;23.222;2023-10-13T10:03:15;42463.53;;;-141.02;53.60
8477;BME280;4275;42.854;23.222;2023-10-13T10:06:00;42475.03;;;-141.02;54.11
8477;BME280;4275;42.854;23.222;2023-10-13T10:08:32;42519.19;;;-141.02;53.35
8477;BME280;4275;42.854;23.222;2023-10-13T10:11:35;42513.44;;;-141.02;52.57
8477;BME280;4275;42.854;23.222;2023-10-13T10:14:16;42578.69;;;-141.02;53.21
8477;BME280;4275;42.854;23.222;2023-10-13T10:16:56;42548.00;;;-141.02;52.56
8477;BME280;4275;42.854;23.222;2023-10-13T10:19:26;42578.69;;;-141.02;53.02
8477;BME280;4275;42.854;23.222;2023-10-13T10:22:02;42542.22;;;-141.02;53.51
8477;BME280;4275;42.854;23.222;2023-10-13T10:24:39;42509.59;;;-141.02;52.89
8477;BME280;4275;42.854;23.222;2023-10-13T10:27:07;42501.91;;;-141.02;52.00
8477;BME280;4275;42.854;23.222;2023-10-13T10:29:34;42482.72;;;-141.02;51.89
8477;BME280;4275;42.854;23.222;2023-10-13T10:32:00;42544.16;;;-141.02;52.04
8477;BME280;4275;42.854;23.222;2023-10-13T10:34:39;42661.25;;;-141.02;51.92
8477;BME280;4275;42.854;23.222;2023-10-13T10:37:09;42605.56;;;-141.02;51.88
8477;BME280;4275;42.854;23.222;2023-10-13T10:39:36;42617.09;;;-141.02;52.47
8477;BME280;4275;42.854;23.222;2023-10-13T10:42:12;42678.53;;;-141.02;52.05
8477;BME280;4275;42.854;23.222;2023-10-13T10:44:49;42580.63;;;-141.02;52.25
8477;BME280;4275;42.854;23.222;2023-10-13T10:47:21;42674.69;;;-141.02;51.43
8477;BME280;4275;42.854;23.222;2023-10-13T10:49:56;42716.91;;;-141.02;53.28
8477;BME280;4275;42.854;23.222;2023-10-13T10:52:27;42718.84;;;-141.02;52.39
8477;BME280;4275;42.854;23.222;2023-10-13T10:55:02;42588.31;;;-141.02;52.09
8477;BME280;4275;42.854;23.222;2023-10-13T10:57:32;42755.31;;;-141.02;52.17
8477;BME280;4275;42.854;23.222;2023-10-13T11:00:03;42770.66;;;-141.02;51.57
8477;BME280;4275;42.854;23.222;2023-10-13T11:02:37;42739.94;;;-141.02;51.56
8477;BME280;4275;42.854;23.222;2023-10-13T11:05:06;42707.31;;;-141.02;51.34
8477;BME280;4275;42.854;23.222;2023-10-13T11:07:36;42726.50;;;-141.02;51.57
8477;BME280;4275;42.854;23.222;2023-10-13T11:10:10;42855.13;;;-141.02;52.03
8477;BME280;4275;42.854;23.222;2023-10-13T11:12:55;42851.28;;;-141.02;51.49
8477;BME280;4275;42.854;23.222;2023-10-13T11:15:41;42862.81;;;-141.02;50.95
8477;BME280;4275;42.854;23.222;2023-10-13T11:18:10;42832.09;;;-141.02;51.25
8477;BME280;4275;42.854;23.222;2023-10-13T11:20:46;42766.81;;;-141.02;51.54
8477;BME280;4275;42.854;23.222;2023-10-13T11:23:21;42791.78;;;-141.02;51.68
8477;BME280;4275;42.854;23.222;2023-10-13T11:25:56;42807.13;;;-141.02;51.46
8477;BME280;4275;42.854;23.222;2023-10-13T11:28:24;42858.97;;;-141.02;51.51
8477;BME280;4275;42.854;23.222;2023-10-13T11:30:54;42870.50;;;-141.02;51.44
8477;BME280;4275;42.854;23.222;2023-10-13T11:33:24;42835.94;;;-141.02;51.31
8477;BME280;4275;42.854;23.222;2023-10-13T11:35:54;42782.19;;;-141.02;51.48
8477;BME280;4275;42.854;23.222;2023-10-13T11:38:30;42839.78;;;-141.02;51.68
8477;BME280;4275;42.854;23.222;2023-10-13T11:41:08;42912.72;;;-141.02;51.22
8477;BME280;4275;42.854;23.222;2023-10-13T11:43:38;42905.06;;;-141.02;50.96
8477;BME280;4275;42.854;23.222;2023-10-13T11:46:34;42939.59;;;-141.02;51.08
8477;BME280;4275;42.854;23.222;2023-10-13T11:49:18;42951.13;;;-141.02;51.35
8477;BME280;4275;42.854;23.222;2023-10-13T11:51:57;42887.78;;;-141.02;51.75
8477;BME280;4275;42.854;23.222;2023-10-13T11:54:36;42912.72;;;-141.02;50.67
8477;BME280;4275;42.854;23.222;2023-10-13T11:57:07;42949.19;;;-141.02;50.76
8477;BME280;4275;42.854;23.222;2023-10-13T11:59:34;42933.84;;;-141.02;50.84
8477;BME280;4275;42.854;23.222;2023-10-13T12:02:11;42889.69;;;-141.02;51.51
8477;BME280;4275;42.854;23.222;2023-10-13T12:04:55;42926.16;;;-141.02;50.91
8477;BME280;4275;42.854;23.222;2023-10-13T12:07:24;42954.97;;;-141.02;50.65
8477;BME280;4275;42.854;23.222;2023-10-13T12:10:10;42966.47;;;-141.02;51.04
8477;BME280;4275;42.854;23.222;2023-10-13T12:12:42;42989.53;;;-141.02;50.35
8477;BME280;4275;42.854;23.222;2023-10-13T12:15:12;42970.31;;;-141.02;50.72
8477;BME280;4275;42.854;23.222;2023-10-13T12:17:51;43024.06;;;-141.02;50.62
8477;BME280;4275;42.854;23.222;2023-10-13T12:20:18;43001.03;;;-141.02;50.88
8477;BME280;4275;42.854;23.222;2023-10-13T12:22:58;43004.88;;;-141.02;50.47
8477;BME280;4275;42.854;23.222;2023-10-13T12:25:38;43016.41;;;-141.02;50.19
8477;BME280;4275;42.854;23.222;2023-10-13T12:28:22;43039.44;;;-141.02;49.61
8477;BME280;4275;42.854;23.222;2023-10-13T12:30:53;43004.88;;;-141.02;49.83
8477;BME280;4275;42.854;23.222;2023-10-13T12:33:20;42935.75;;;-141.02;50.04
8477;BME280;4275;42.854;23.222;2023-10-13T12:36:02;42985.69;;;-141.02;51.11
8477;BME280;4275;42.854;23.222;2023-10-13T12:38:36;43050.97;;;-141.02;51.36
8477;BME280;4275;42.854;23.222;2023-10-13T12:41:18;43056.72;;;-141.02;51.20
8477;BME280;4275;42.854;23.222;2023-10-13T12:44:04;43085.50;;;-141.02;50.87
8477;BME280;4275;42.854;23.222;2023-10-13T12:46:49;43077.84;;;-141.02;50.38
8477;BME280;4275;42.854;23.222;2023-10-13T12:49:33;43027.91;;;-141.02;50.21
8477;BME280;4275;42.854;23.222;2023-10-13T12:52:17;43120.06;;;-141.02;50.68
8477;BME280;4275;42.854;23.222;2023-10-13T12:54:45;43074.00;;;-141.02;50.63
8477;BME280;4275;42.854;23.222;2023-10-13T12:57:26;43027.91;;;-141.02;50.67
8477;BME280;4275;42.854;23.222;2023-10-13T12:59:53;43137.34;;;-141.02;51.20
8477;BME280;4275;42.854;23.222;2023-10-13T13:02:20;43154.63;;;-141.02;50.47
8477;BME280;4275;42.854;23.222;2023-10-13T13:04:50;43170.00;;;-141.02;50.74
8477;BME280;4275;42.854;23.222;2023-10-13T13:07:22;43162.31;;;-141.02;50.57
8477;BME280;4275;42.854;23.222;2023-10-13T13:09:54;43146.94;;;-141.02;50.28
8477;BME280;4275;42.854;23.222;2023-10-13T13:12:25;43139.28;;;-141.02;50.31
8477;BME280;4275;42.854;23.222;2023-10-13T13:14:53;43170.00;;;-141.02;50.67
8477;BME280;4275;42.854;23.222;2023-10-13T13:17:21;43173.81;;;-141.02;50.27
8477;BME280;4275;42.854;23.222;2023-10-13T13:19:48;43166.16;;;-141.02;49.91
8477;BME280;4275;42.854;23.222;2023-10-13T13:22:15;43164.22;;;-141.02;50.28
8477;BME280;4275;42.854;23.222;2023-10-13T13:24:44;43185.34;;;-141.02;51.04
8477;BME280;4275;42.854;23.222;2023-10-13T13:27:12;43193.03;;;-141.02;50.72